Time;durP1;ratioP1;P1;durP2;ratioP2;P2;SDS_P1;SDS_P2;PMS_P1;PMS_P2;Temp;Humidity;BMP_temperature;BMP_pressure;BME280_temperature;BME280_humidity;BME280_pressure;Samples;Min_cycle;Max_cycle;Signal;HPM_P1;HPM_P2
2023/01/22 00:01:57;;;;;;;13.80;4.95;;;;;;;8.75;100.00;100455.53;4999766;28;20054;-80
2023/01/22 00:04:22;;;;;;;14.02;4.93;;;;;;;9.49;100.00;100590.50;5002036;28;20042;-79
2023/01/22 00:06:48;;;;;;;18.52;6.25;;;;;;;9.43;100.00;100593.94;5002652;28;20081;-81
2023/01/22 00:09:14;;;;;;;11.98;4.50;;;;;;;9.43;100.00;100582.59;5000374;28;20050;-80
2023/01/22 00:11:40;;;;;;;12.43;5.25;;;;;;;9.51;100.00;100601.88;5005412;28;20050;-80
2023/01/22 00:14:06;;;;;;;14.00;4.20;;;;;;;9.50;100.00;100618.44;5006598;28;20057;-78
2023/01/22 00:16:32;;;;;;;8.57;4.20;;;;;;;8.84;100.00;100487.03;5004601;28;20030;-81
2023/01/22 00:18:57;;;;;;;16.58;5.82;;;;;;;8.78;100.00;100500.94;5009935;28;20073;-80
2023/01/22 00:21:23;;;;;;;11.38;5.75;;;;;;;8.76;100.00;100520.09;5009356;28;20034;-80
2023/01/22 00:23:48;;;;;;;20.50;6.30;;;;;;;9.19;100.00;100602.47;5005588;28;20409;-79
2023/01/22 00:26:16;;;;;;;13.32;5.15;;;;;;;9.22;100.00;100588.53;5015013;28;20046;-78
2023/01/22 00:28:44;;;;;;;13.90;6.45;;;;;;;9.40;100.00;100609.63;5011890;28;20052;-78
2023/01/22 00:31:11;;;;;;;18.48;6.18;;;;;;;9.26;100.00;100593.81;5006857;28;20054;-79
2023/01/22 00:33:38;;;;;;;19.80;6.45;;;;;;;9.40;100.00;100620.09;5011796;28;20041;-78
2023/01/22 00:36:09;;;;;;;17.67;7.25;;;;;;;9.21;100.00;100626.06;5009667;28;20042;-78
2023/01/22 00:38:35;;;;;;;15.70;6.13;;;;;;;9.21;100.00;100605.13;5015863;28;20068;-81
2023/01/22 00:41:02;;;;;;;14.50;5.63;;;;;;;8.39;100.00;100491.81;5010947;28;20046;-81
2023/01/22 00:43:28;;;;;;;12.45;6.38;;;;;;;9.00;100.00;100598.81;5013923;28;20537;-79
2023/01/22 00:45:54;;;;;;;13.23;6.28;;;;;;;9.43;100.00;100650.69;5009401;28;20046;-79
2023/01/22 00:48:19;;;;;;;22.48;6.75;;;;;;;8.64;100.00;100516.50;5005115;28;20482;-78
2023/01/22 00:50:45;;;;;;;11.98;6.50;;;;;;;9.17;100.00;100634.75;5007904;28;20864;-79
2023/01/22 00:53:10;;;;;;;10.02;5.75;;;;;;;9.06;100.00;100659.09;5012263;28;20051;-79
2023/01/22 00:55:36;;;;;;;10.77;5.53;;;;;;;9.03;100.00;100605.81;5011954;28;20810;-80
2023/01/22 00:58:01;;;;;;;10.00;5.15;;;;;;;9.35;100.00;100661.09;5008759;28;20450;-79
2023/01/22 01:00:26;;;;;;;12.70;5.05;;;;;;;8.81;100.00;100570.72;5002937;28;20406;-81
2023/01/22 01:05:36;;;;;;;17.30;6.72;;;;;;;8.39;100.00;100527.53;5008640;28;20077;-80
2023/01/22 01:08:01;;;;;;;15.02;5.88;;;;;;;8.52;100.00;100528.56;5011997;28;20159;-80
2023/01/22 01:10:27;;;;;;;12.05;6.07;;;;;;;9.24;100.00;100649.63;5007483;28;20030;-81
2023/01/22 01:12:52;;;;;;;12.60;6.88;;;;;;;8.25;100.00;100520.41;5006175;28;20042;-81
2023/01/22 01:15:17;;;;;;;12.68;7.47;;;;;;;8.04;100.00;100499.28;5006921;28;20038;-80
2023/01/22 01:17:45;;;;;;;20.77;8.13;;;;;;;8.26;100.00;100487.31;5000507;28;20053;-82
2023/01/22 01:20:11;;;;;;;8.30;5.38;;;;;;;9.18;100.00;100626.03;5010358;28;20042;-77
2023/01/22 01:22:37;;;;;;;17.95;7.38;;;;;;;9.18;100.00;100623.44;5012538;28;20557;-78
2023/01/22 01:25:02;;;;;;;13.80;6.93;;;;;;;9.13;100.00;100633.84;5004219;28;20026;-78
2023/01/22 01:27:30;;;;;;;8.93;5.75;;;;;;;8.73;100.00;100533.13;5011132;28;20467;-79
2023/01/22 01:29:56;;;;;;;17.48;7.78;;;;;;;9.12;100.00;100600.66;5007842;28;20160;-77
2023/01/22 01:32:22;;;;;;;17.42;6.53;;;;;;;8.70;100.00;100533.13;5004251;28;20058;-77
2023/01/22 01:34:48;;;;;;;12.25;6.82;;;;;;;7.48;100.00;100322.75;5007339;28;20044;-76
2023/01/22 01:37:14;;;;;;;10.95;6.70;;;;;;;9.12;100.00;100613.75;5007852;28;20038;-77
2023/01/22 01:39:40;;;;;;;12.30;6.47;;;;;;;8.36;100.00;100504.88;5012544;28;20478;-77
2023/01/22 01:42:05;;;;;;;20.13;6.85;;;;;;;9.09;100.00;100632.06;5011809;28;20810;-76
2023/01/22 01:44:31;;;;;;;9.35;6.05;;;;;;;8.68;100.00;100581.91;5006112;28;20049;-78
2023/01/22 01:47:00;;;;;;;12.63;6.88;;;;;;;8.98;100.00;100611.00;5006872;28;20045;-78
2023/01/22 01:49:35;;;;;;;15.75;6.20;;;;;;;9.01;100.00;100621.53;5008763;28;20034;-78
2023/01/22 01:52:05;;;;;;;16.42;6.80;;;;;;;9.20;100.00;100637.38;5005149;28;20524;-78
2023/01/22 01:54:31;;;;;;;11.93;6.80;;;;;;;9.25;100.00;100640.94;5006923;28;20041;-78
2023/01/22 01:57:04;;;;;;;14.07;7.43;;;;;;;8.45;100.00;100512.84;5011846;28;20436;-77
2023/01/22 01:59:32;;;;;;;17.95;7.43;;;;;;;8.46;100.00;100513.72;5003057;28;20529;-77
2023/01/22 02:02:00;;;;;;;18.27;6.95;;;;;;;8.47;100.00;100511.97;5008571;28;20133;-79
2023/01/22 02:04:26;;;;;;;17.33;6.28;;;;;;;8.54;100.00;100542.53;5015297;28;20065;-80
2023/01/22 02:06:51;;;;;;;13.95;6.90;;;;;;;8.80;100.00;100568.97;5004447;28;20045;-79
2023/01/22 02:09:17;;;;;;;18.55;7.30;;;;;;;8.58;100.00;100524.28;5005813;28;20112;-79
2023/01/22 02:11:43;;;;;;;9.73;5.22;;;;;;;9.19;100.00;100646.09;5007864;28;20095;-78
2023/01/22 02:14:15;;;;;;;16.40;6.63;;;;;;;9.31;100.00;100659.31;5005567;28;20120;-79
2023/01/22 02:16:41;;;;;;;22.10;6.80;;;;;;;9.20;100.00;100643.53;5001171;28;20122;-77
2023/01/22 02:19:07;;;;;;;17.77;7.60;;;;;;;9.22;100.00;100651.38;5006176;28;20526;-78
2023/01/22 02:21:43;;;;;;;8.55;5.22;;;;;;;8.73;100.00;100567.16;5005229;28;20049;-77
2023/01/22 02:24:14;;;;;;;12.80;6.43;;;;;;;8.71;100.00;100555.78;5001575;28;20146;-79
2023/01/22 02:26:41;;;;;;;12.05;6.68;;;;;;;8.66;100.00;100530.47;5006454;28;20164;-83
2023/01/22 02:29:08;;;;;;;13.93;6.90;;;;;;;8.94;100.00;100608.34;5006635;28;20038;-79
2023/01/22 02:31:35;;;;;;;21.90;8.95;;;;;;;9.11;100.00;100637.28;5007066;28;20413;-80
2023/01/22 02:34:01;;;;;;;16.52;6.65;;;;;;;9.09;100.00;100658.25;5007316;28;20852;-80
2023/01/22 02:36:28;;;;;;;11.57;7.25;;;;;;;9.26;100.00;100659.25;5002234;28;20054;-81
2023/01/22 02:38:54;;;;;;;14.82;6.95;;;;;;;9.14;100.00;100632.09;5010355;28;20057;-79
2023/01/22 02:41:19;;;;;;;12.85;7.22;;;;;;;8.54;100.00;100525.09;5002984;28;20053;-79
2023/01/22 02:43:45;;;;;;;9.20;6.97;;;;;;;8.66;100.00;100546.19;5008506;28;20184;-81
2023/01/22 02:46:11;;;;;;;14.05;6.20;;;;;;;9.39;100.00;100667.22;5007161;28;20553;-81
2023/01/22 02:48:36;;;;;;;17.58;7.43;;;;;;;8.64;100.00;100550.50;5001850;28;20081;-80
2023/01/22 02:51:02;;;;;;;11.77;7.00;;;;;;;9.11;100.00;100653.91;5017373;28;20046;-82
2023/01/22 02:53:28;;;;;;;14.45;6.97;;;;;;;8.47;100.00;100559.91;5003798;28;20035;-84
2023/01/22 02:55:53;;;;;;;18.23;7.72;;;;;;;8.92;100.00;100641.47;5000478;28;20037;-84
2023/01/22 02:58:18;;;;;;;13.98;6.97;;;;;;;8.56;100.00;100570.47;5010172;28;20059;-79
2023/01/22 03:00:44;;;;;;;15.40;7.55;;;;;;;9.02;100.00;100651.19;5005303;28;20606;-79
2023/01/22 03:03:14;;;;;;;17.80;7.05;;;;;;;8.41;100.00;100541.53;5007116;28;20060;-79
2023/01/22 03:05:47;;;;;;;12.50;6.45;;;;;;;8.53;100.00;100557.38;5014791;28;20224;-79
2023/01/22 03:08:12;;;;;;;18.27;8.65;;;;;;;8.40;100.00;100545.88;5003327;28;20054;-78
2023/01/22 03:10:38;;;;;;;11.02;5.95;;;;;;;8.31;100.00;100537.03;5011520;28;20026;-78
2023/01/22 03:21:16;;;;;;;17.80;7.20;;;;;;;8.41;100.00;100565.09;5008033;28;20056;-78
2023/01/22 03:23:47;;;;;;;11.75;7.90;;;;;;;8.45;100.00;100559.00;5009513;28;20034;-78
2023/01/22 03:26:14;;;;;;;10.77;6.75;;;;;;;9.04;100.00;100665.16;5011100;28;20048;-78
2023/01/22 03:28:39;;;;;;;27.52;7.05;;;;;;;9.06;100.00;100666.94;5008209;28;20045;-81
2023/01/22 03:31:05;;;;;;;13.63;6.45;;;;;;;9.04;100.00;100659.94;5009632;28;20026;-81
2023/01/22 03:33:32;;;;;;;9.43;5.72;;;;;;;9.16;100.00;100672.28;5006887;28;20502;-81
2023/01/22 03:36:05;;;;;;;16.38;7.22;;;;;;;9.10;100.00;100665.22;5007024;28;20494;-81
2023/01/22 03:38:31;;;;;;;8.40;5.90;;;;;;;8.35;100.00;100558.00;5009725;28;20116;-80
2023/01/22 03:41:04;;;;;;;12.85;6.60;;;;;;;8.10;100.00;100554.22;5006525;28;20049;-80
2023/01/22 03:43:31;;;;;;;16.00;8.52;;;;;;;8.42;100.00;100677.50;5014115;28;20509;-80
2023/01/22 03:46:02;;;;;;;10.77;6.60;;;;;;;7.49;100.00;100509.91;5010815;28;20042;-80
2023/01/22 03:48:28;;;;;;;17.35;7.90;;;;;;;7.73;100.00;100537.22;5014285;28;20049;-79
2023/01/22 03:50:54;;;;;;;11.05;6.68;;;;;;;8.31;100.00;100625.91;5009250;28;20049;-80
2023/01/22 03:53:19;;;;;;;20.25;8.43;;;;;;;7.76;100.00;100565.97;5006294;28;20050;-79
2023/01/22 03:55:45;;;;;;;15.68;8.45;;;;;;;7.97;100.00;100596.75;5006767;28;20033;-79
2023/01/22 03:58:10;;;;;;;16.88;7.57;;;;;;;7.87;100.00;100590.50;5012973;28;20053;-78
2023/01/22 04:00:36;;;;;;;22.80;8.10;;;;;;;8.06;100.00;100632.56;5008760;28;20037;-79
2023/01/22 04:03:01;;;;;;;12.38;8.07;;;;;;;8.02;100.00;100624.66;5006852;28;20462;-78
2023/01/22 04:05:27;;;;;;;14.00;8.02;;;;;;;7.42;100.00;100510.63;5004154;28;20474;-78
2023/01/22 04:07:52;;;;;;;15.77;8.60;;;;;;;7.34;100.00;100505.31;5008278;28;20125;-79
2023/01/22 04:10:17;;;;;;;19.67;9.55;;;;;;;7.58;100.00;100541.34;5010414;28;20037;-79
2023/01/22 04:12:43;;;;;;;21.70;8.85;;;;;;;8.10;100.00;100630.03;5008730;28;20491;-79
2023/01/22 04:15:09;;;;;;;15.00;8.45;;;;;;;7.87;100.00;100624.47;5008021;28;20050;-79
2023/01/22 04:17:35;;;;;;;14.90;7.78;;;;;;;8.04;100.00;100601.19;5007664;28;20050;-78
2023/01/22 04:20:00;;;;;;;14.43;8.52;;;;;;;7.19;100.00;100486.84;5004878;28;20061;-80
2023/01/22 04:22:26;;;;;;;14.57;7.38;;;;;;;7.91;100.00;100630.59;5009158;28;20042;-79
2023/01/22 04:24:51;;;;;;;19.73;8.77;;;;;;;7.97;100.00;100623.72;4998305;28;20081;-78
2023/01/22 04:27:16;;;;;;;15.80;9.02;;;;;;;7.24;100.00;100500.84;5006898;28;20054;-79
2023/01/22 04:29:42;;;;;;;13.68;9.50;;;;;;;7.90;100.00;100626.25;5003289;28;20045;-81
2023/01/22 04:32:07;;;;;;;15.07;9.10;;;;;;;7.77;100.00;100596.44;4999921;28;20050;-82
2023/01/22 04:34:33;;;;;;;21.80;10.65;;;;;;;7.61;100.00;100532.69;5009356;28;20497;-79
2023/01/22 04:36:58;;;;;;;19.75;10.25;;;;;;;7.80;100.00;100635.69;5011363;28;20096;-84
2023/01/22 04:39:24;;;;;;;19.25;10.57;;;;;;;6.98;100.00;100463.91;5002983;28;20133;-77
2023/01/22 04:41:49;;;;;;;19.25;10.68;;;;;;;7.04;100.00;100492.69;5004887;28;20038;-82
2023/01/22 04:44:14;;;;;;;25.80;10.57;;;;;;;7.66;100.00;100605.88;5005064;28;20070;-78
2023/01/22 04:46:40;;;;;;;19.77;10.40;;;;;;;7.62;100.00;100597.09;5012675;28;20033;-77
2023/01/22 04:49:05;;;;;;;22.30;10.82;;;;;;;7.12;100.00;100513.69;5005563;28;20571;-80
2023/01/22 04:51:31;;;;;;;15.60;10.00;;;;;;;7.55;100.00;100598.75;5008318;28;20501;-80
2023/01/22 04:53:56;;;;;;;21.25;9.75;;;;;;;7.47;100.00;100587.31;4997722;28;20576;-80
2023/01/22 04:56:22;;;;;;;15.00;10.18;;;;;;;6.72;100.00;100458.28;5007754;28;20531;-79
2023/01/22 04:58:48;;;;;;;20.02;11.30;;;;;;;7.01;100.00;100507.44;5009544;28;20083;-80
2023/01/22 05:01:13;;;;;;;22.73;9.55;;;;;;;6.85;100.00;100467.16;5002208;28;20041;-81
2023/01/22 05:03:39;;;;;;;16.95;9.68;;;;;;;7.24;100.00;100542.59;5011769;28;20050;-81
2023/01/22 05:06:05;;;;;;;17.90;10.45;;;;;;;6.97;100.00;100475.19;5012285;28;20107;-80
2023/01/22 05:08:30;;;;;;;16.08;10.13;;;;;;;7.43;100.00;100576.81;5007939;28;20052;-81
2023/01/22 05:10:59;;;;;;;23.92;10.15;;;;;;;6.57;100.00;100438.03;5008902;28;20558;-79
2023/01/22 05:13:25;;;;;;;25.23;10.07;;;;;;;6.95;100.00;100487.31;5013739;28;20039;-78
2023/01/22 05:15:50;;;;;;;23.23;10.90;;;;;;;6.84;100.00;100462.81;5007208;28;20553;-75
2023/01/22 05:18:16;;;;;;;16.77;10.57;;;;;;;7.33;100.00;100554.91;5003613;28;20603;-82
2023/01/22 05:20:41;;;;;;;16.38;9.20;;;;;;;6.74;100.00;100436.59;5011901;28;20052;-80
2023/01/22 05:23:07;;;;;;;21.38;10.75;;;;;;;7.61;100.00;100577.09;4999429;28;20108;-78
2023/01/22 05:25:32;;;;;;;17.90;11.40;;;;;;;6.95;100.00;100495.13;4984386;28;20040;-78
2023/01/22 05:27:58;;;;;;;24.60;12.20;;;;;;;6.69;100.00;100440.84;5006116;28;20117;-77
2023/01/22 05:30:23;;;;;;;21.02;12.27;;;;;;;6.80;100.00;100469.69;5008410;28;20552;-79
2023/01/22 05:32:53;;;;;;;22.08;11.32;;;;;;;6.57;100.00;100434.56;5009328;28;20045;-78
2023/01/22 05:35:18;;;;;;;17.77;12.13;;;;;;;7.44;100.00;100570.72;5008329;28;20078;-76
2023/01/22 05:37:44;;;;;;;24.05;10.30;;;;;;;6.56;100.00;100420.66;5008598;28;20135;-79
2023/01/22 05:40:10;;;;;;;24.38;11.00;;;;;;;6.59;100.00;100441.53;5009426;28;20049;-78
2023/01/22 05:42:35;;;;;;;18.05;11.73;;;;;;;6.64;100.00;100444.22;5006340;28;20053;-77
2023/01/22 05:45:01;;;;;;;17.83;8.70;;;;;;;6.84;100.00;100455.00;5007188;28;20512;-81
2023/01/22 05:47:26;;;;;;;23.63;10.60;;;;;;;7.51;100.00;100583.88;5007528;28;20069;-80
2023/01/22 05:49:52;;;;;;;15.45;10.63;;;;;;;7.16;100.00;100545.09;5007346;28;20780;-80
2023/01/22 05:52:17;;;;;;;15.32;10.00;;;;;;;6.85;100.00;100504.56;5003964;28;20066;-79
2023/01/22 05:54:43;;;;;;;20.33;10.77;;;;;;;6.62;100.00;100466.78;4997979;28;20121;-80
2023/01/22 05:57:08;;;;;;;21.38;9.98;;;;;;;6.77;100.00;100490.53;5011501;28;20049;-80
2023/01/22 05:59:34;;;;;;;25.10;11.05;;;;;;;7.44;100.00;100604.66;5011060;28;20494;-80
2023/01/22 06:02:00;;;;;;;20.45;11.52;;;;;;;7.40;100.00;100615.06;5014584;28;20112;-78
2023/01/22 06:04:25;;;;;;;15.50;9.30;;;;;;;6.79;100.00;100483.63;5014324;28;20026;-78
2023/01/22 06:06:51;;;;;;;17.30;10.55;;;;;;;7.26;100.00;100586.97;5010773;28;20137;-80
2023/01/22 06:09:16;;;;;;;16.48;10.80;;;;;;;6.60;100.00;100482.41;5003785;28;20055;-76
2023/01/22 06:11:42;;;;;;;13.80;9.23;;;;;;;7.53;100.00;100646.56;5002815;28;20112;-79
2023/01/22 06:14:07;;;;;;;22.05;10.68;;;;;;;7.24;100.00;100592.16;5007244;28;20683;-80
2023/01/22 06:16:33;;;;;;;25.23;12.48;;;;;;;7.27;100.00;100607.00;5007408;28;20059;-79
2023/01/22 06:18:58;;;;;;;26.48;12.38;;;;;;;7.01;100.00;100563.09;5003781;28;20046;-78
2023/01/22 06:21:24;;;;;;;19.88;11.18;;;;;;;7.46;100.00;100663.88;5010878;28;20136;-76
2023/01/22 06:23:49;;;;;;;18.67;11.40;;;;;;;6.92;100.00;100544.66;5008079;28;20698;-79
2023/01/22 06:26:15;;;;;;;27.52;12.25;;;;;;;7.55;100.00;100670.97;5011108;28;20501;-78
2023/01/22 06:28:40;;;;;;;33.03;11.50;;;;;;;6.81;100.00;100538.38;5003124;28;20378;-78
2023/01/22 06:31:06;;;;;;;20.13;12.23;;;;;;;7.78;100.00;100672.22;5008114;28;20626;-77
2023/01/22 06:33:36;;;;;;;21.83;11.23;;;;;;;6.96;100.00;100578.66;5013626;28;20046;-77
2023/01/22 06:36:02;;;;;;;21.70;11.00;;;;;;;7.56;100.00;100689.31;5004058;28;20237;-78
2023/01/22 06:38:28;;;;;;;17.38;10.57;;;;;;;6.67;100.00;100545.97;5003568;28;20058;-78
2023/01/22 06:40:56;;;;;;;19.83;8.95;;;;;;;6.54;100.00;100545.75;5007503;28;20080;-79
2023/01/22 06:43:22;;;;;;;23.95;8.70;;;;;;;7.15;100.00;100634.63;5004142;28;20393;-77
2023/01/22 06:45:48;;;;;;;17.83;9.60;;;;;;;7.30;100.00;100661.84;5010651;28;20049;-77
2023/01/22 06:48:14;;;;;;;20.23;9.13;;;;;;;6.44;100.00;100516.84;5008907;28;20136;-77
2023/01/22 06:50:39;;;;;;;24.83;9.60;;;;;;;7.38;100.00;100673.31;5011959;28;20132;-77
2023/01/22 06:53:05;;;;;;;22.20;8.90;;;;;;;6.89;100.00;100602.88;5004395;28;20505;-77
2023/01/22 06:55:30;;;;;;;16.85;8.40;;;;;;;6.11;100.00;100476.28;5012418;28;20554;-77
2023/01/22 06:57:56;;;;;;;23.60;9.43;;;;;;;6.97;100.00;100635.19;5009850;28;20042;-77
2023/01/22 07:00:22;;;;;;;18.27;10.18;;;;;;;6.58;100.00;100562.34;5001953;28;20137;-78
2023/01/22 07:02:47;;;;;;;20.25;10.65;;;;;;;6.34;100.00;100498.47;4998658;28;20065;-79
2023/01/22 07:05:14;;;;;;;23.10;10.45;;;;;;;7.12;100.00;100642.44;5009157;28;20076;-79
2023/01/22 07:07:40;;;;;;;17.92;9.32;;;;;;;7.01;100.00;100635.25;4995590;28;20068;-77
2023/01/22 07:10:08;;;;;;;29.58;13.80;;;;;;;7.30;100.00;100675.78;5006658;28;20077;-77
2023/01/22 07:12:33;;;;;;;23.58;13.85;;;;;;;6.50;100.00;100535.22;5005993;28;20045;-77
2023/01/22 07:14:59;;;;;;;26.25;13.05;;;;;;;6.54;100.00;100535.31;5015968;28;20045;-78
2023/01/22 07:17:25;;;;;;;25.77;13.65;;;;;;;6.40;100.00;100526.38;4998399;28;20061;-79
2023/01/22 07:19:50;;;;;;;23.65;14.43;;;;;;;6.54;100.00;100539.66;5002320;28;20745;-80
2023/01/22 07:22:16;;;;;;;27.48;15.68;;;;;;;6.51;100.00;100522.25;5002971;28;20044;-79
2023/01/22 07:24:41;;;;;;;29.48;16.25;;;;;;;7.23;100.00;100676.53;5002865;28;20422;-79
2023/01/22 07:27:06;;;;;;;23.15;14.82;;;;;;;7.39;100.00;100677.66;5003005;28;20077;-76
2023/01/22 07:29:32;;;;;;;17.67;10.43;;;;;;;6.72;100.00;100573.91;5006363;28;20053;-78
2023/01/22 07:31:57;;;;;;;35.58;17.88;;;;;;;6.51;100.00;100534.41;5003294;28;20042;-78
2023/01/22 07:34:23;;;;;;;38.40;18.05;;;;;;;7.35;100.00;100681.97;5013795;28;20034;-79
2023/01/22 07:36:48;;;;;;;28.77;16.25;;;;;;;7.39;100.00;100675.94;5003758;28;20053;-79
2023/01/22 07:39:14;;;;;;;27.48;16.77;;;;;;;6.81;100.00;100600.97;5011905;28;20066;-79
2023/01/22 07:41:39;;;;;;;25.25;16.13;;;;;;;7.14;100.00;100655.47;5007911;28;20045;-77
2023/01/22 07:44:07;;;;;;;35.50;18.15;;;;;;;6.65;100.00;100569.41;5006653;28;20148;-78
2023/01/22 07:46:37;;;;;;;24.23;10.90;;;;;;;7.08;100.00;100640.59;5001285;28;20045;-78
2023/01/22 07:49:04;;;;;;;31.65;19.83;;;;;;;6.61;100.00;100569.34;5002547;28;20061;-78
2023/01/22 07:51:29;;;;;;;30.50;18.30;;;;;;;7.28;100.00;100680.13;5000311;28;20050;-77
2023/01/22 07:53:55;;;;;;;33.65;17.55;;;;;;;6.72;100.00;100589.53;5008131;28;20053;-78
2023/01/22 07:56:20;;;;;;;22.33;10.93;;;;;;;7.31;100.00;100687.13;5010049;28;20061;-78
2023/01/22 07:58:46;;;;;;;28.75;17.05;;;;;;;7.30;100.00;100686.22;5011945;28;20053;-77
2023/01/22 08:01:11;;;;;;;30.77;20.45;;;;;;;7.32;100.00;100681.91;5009931;28;20040;-78
2023/01/22 08:03:37;;;;;;;42.65;20.77;;;;;;;7.00;100.00;100626.56;5007561;28;20489;-79
2023/01/22 08:06:19;;;;;;;36.47;21.08;;;;;;;7.19;100.00;100654.72;5009114;28;20053;-79
2023/01/22 08:08:45;;;;;;;44.72;21.75;;;;;;;6.08;100.00;100452.81;5008544;28;20537;-79
2023/01/22 08:11:10;;;;;;;26.52;10.27;;;;;;;7.34;100.00;100680.22;5013980;28;20042;-79
2023/01/22 08:13:36;;;;;;;23.88;12.35;;;;;;;7.38;100.00;100686.38;5012266;28;20029;-78
2023/01/22 08:16:01;;;;;;;35.88;17.75;;;;;;;6.81;100.00;100575.75;5010260;28;20037;-79
2023/01/22 08:18:26;;;;;;;29.65;18.85;;;;;;;6.71;100.00;100576.47;5000409;28;20552;-79
2023/01/22 08:20:52;;;;;;;14.40;8.55;;;;;;;7.01;100.00;100640.47;5006967;28;20389;-80
2023/01/22 08:23:17;;;;;;;26.38;11.00;;;;;;;7.15;100.00;100658.13;5005237;28;20100;-79
2023/01/22 08:25:43;;;;;;;32.28;19.50;;;;;;;7.36;100.00;100693.28;5008232;28;20034;-78
2023/01/22 08:28:08;;;;;;;30.42;19.48;;;;;;;6.67;100.00;100564.22;5015342;28;20038;-81
2023/01/22 08:30:35;;;;;;;24.23;11.88;;;;;;;6.67;100.00;100559.00;5006293;28;20509;-82
2023/01/22 08:33:03;;;;;;;19.63;13.05;;;;;;;7.47;100.00;100691.75;5013005;28;20083;-81
2023/01/22 08:35:29;;;;;;;35.80;19.58;;;;;;;6.80;100.00;100565.31;5008653;28;20100;-78
2023/01/22 08:37:59;;;;;;;35.28;22.42;;;;;;;6.72;100.00;100554.78;5017228;28;20366;-78
2023/01/22 08:40:25;;;;;;;33.90;21.50;;;;;;;7.45;100.00;100679.53;5009668;28;20061;-79
2023/01/22 08:42:51;;;;;;;37.10;22.45;;;;;;;7.65;100.00;100712.06;5004065;28;20045;-78
2023/01/22 08:45:18;;;;;;;22.85;12.88;;;;;;;7.54;100.00;100685.78;5001572;28;20422;-79
2023/01/22 08:47:43;;;;;;;29.58;21.80;;;;;;;7.57;100.00;100696.25;5003947;28;20058;-78
2023/01/22 08:50:09;;;;;;;31.58;19.30;;;;;;;7.60;100.00;100708.50;5003994;28;20053;-79
2023/01/22 08:52:35;;;;;;;36.17;19.95;;;;;;;7.60;100.00;100683.25;5003327;28;20167;-79
2023/01/22 08:55:00;;;;;;;29.70;21.17;;;;;;;6.90;100.00;100536.81;5002621;28;20046;-77
2023/01/22 08:57:26;;;;;;;32.65;20.58;;;;;;;7.81;100.00;100694.91;5017321;28;20057;-77
2023/01/22 08:59:51;;;;;;;31.95;13.10;;;;;;;7.30;100.00;100570.50;5001334;28;20046;-78
2023/01/22 09:02:16;;;;;;;34.97;20.20;;;;;;;7.26;100.00;100589.56;5000658;28;20050;-79
2023/01/22 09:04:42;;;;;;;37.92;21.98;;;;;;;7.87;100.00;100678.47;5007210;28;20074;-79
2023/01/22 09:07:09;;;;;;;38.15;20.13;;;;;;;7.99;100.00;100702.16;5004015;28;20038;-78
2023/01/22 09:09:34;;;;;;;31.83;18.02;;;;;;;8.00;100.00;100680.38;5001523;28;20530;-82
2023/01/22 09:12:00;;;;;;;41.35;19.98;;;;;;;8.10;100.00;100687.53;5008313;28;20065;-81
2023/01/22 09:14:25;;;;;;;29.73;18.52;;;;;;;8.20;100.00;100697.25;4994437;28;20558;-84
2023/01/22 09:16:51;;;;;;;29.00;18.13;;;;;;;8.22;100.00;100698.16;5001032;28;20029;-83
2023/01/22 09:19:16;;;;;;;40.72;19.98;;;;;;;8.18;100.00;100692.84;5000421;28;20576;-80
2023/01/22 09:21:42;;;;;;;29.33;17.45;;;;;;;7.82;100.00;100626.16;5005081;28;20062;-79
2023/01/22 09:24:07;;;;;;;31.15;19.08;;;;;;;7.94;100.00;100643.72;4999369;28;20041;-77
2023/01/22 09:26:35;;;;;;;34.80;18.85;;;;;;;7.74;100.00;100602.50;5006654;28;20045;-78
2023/01/22 09:29:04;;;;;;;31.98;17.27;;;;;;;7.59;100.00;100579.66;5006781;28;20049;-80
2023/01/22 09:31:33;;;;;;;28.60;18.33;;;;;;;8.51;100.00;100721.22;5002792;28;20035;-79
2023/01/22 09:33:58;;;;;;;34.33;19.20;;;;;;;8.60;100.00;100733.56;5010862;28;20049;-78
2023/01/22 09:36:24;;;;;;;30.90;16.75;;;;;;;7.84;100.00;100593.06;5007020;28;20054;-80
2023/01/22 09:38:49;;;;;;;26.65;15.90;;;;;;;8.03;100.00;100629.06;5011266;28;20393;-78
2023/01/22 09:41:23;;;;;;;35.45;16.27;;;;;;;7.88;100.00;100602.69;5002399;28;20043;-79
2023/01/22 09:43:53;;;;;;;32.92;17.27;;;;;;;7.87;100.00;100600.09;5009922;28;20041;-78
2023/01/22 09:46:27;;;;;;;23.98;16.40;;;;;;;8.64;100.00;100730.13;5009126;28;20129;-77
2023/01/22 09:49:02;;;;;;;29.10;16.67;;;;;;;8.26;100.00;100680.75;5004434;28;20729;-78
2023/01/22 09:51:27;;;;;;;24.20;15.75;;;;;;;8.37;100.00;100709.66;4997908;28;20054;-78
2023/01/22 09:53:57;;;;;;;26.27;16.33;;;;;;;8.43;100.00;100702.81;5003965;28;20061;-78
2023/01/22 09:56:32;;;;;;;23.83;15.95;;;;;;;7.84;100.00;100619.19;4995084;28;20126;-76
2023/01/22 09:59:06;;;;;;;23.95;16.20;;;;;;;8.64;100.00;100732.75;5103992;27;20628;-76
2023/01/22 10:01:33;;;;;;;32.28;18.23;;;;;;;8.77;100.00;100763.41;5056827;28;20067;-76
2023/01/22 10:04:04;;;;;;;25.17;17.67;;;;;;;8.34;100.00;100649.50;5097113;28;20044;-78
2023/01/22 10:06:30;;;;;;;32.83;18.17;;;;;;;8.35;100.00;100630.34;5099034;28;20047;-76
2023/01/22 10:08:56;;;;;;;29.98;16.70;;;;;;;8.40;100.00;100620.84;5098992;28;20044;-83
2023/01/22 10:11:22;;;;;;;30.13;17.95;;;;;;;8.94;100.00;100723.50;5096970;28;20429;-79
2023/01/22 10:13:50;;;;;;;28.83;15.02;;;;;;;8.86;100.00;100702.47;5092823;28;20035;-84
2023/01/22 10:16:15;;;;;;;26.77;15.13;;;;;;;9.01;100.00;100722.69;5099860;28;20032;-84
2023/01/22 10:18:45;;;;;;;25.83;14.98;;;;;;;8.67;100.00;100662.16;5100634;28;20113;-78
2023/01/22 10:21:23;;;;;;;24.83;14.05;;;;;;;9.14;100.00;100742.94;5097538;28;20146;-83
2023/01/22 10:23:49;;;;;;;30.05;13.82;;;;;;;9.22;100.00;100735.16;5092309;28;20058;-80
2023/01/22 10:26:27;;;;;;;27.08;13.45;;;;;;;9.15;100.00;100733.31;5103293;28;20051;-82
2023/01/22 10:29:01;;;;;;;22.05;14.65;;;;;;;9.43;100.00;100744.97;5097757;28;20050;-83
2023/01/22 10:31:35;;;;;;;26.23;15.60;;;;;;;9.34;100.00;100758.88;5101681;28;20039;-83
2023/01/22 10:34:15;;;;;;;27.67;14.60;;;;;;;8.97;100.00;100674.69;5093684;28;20063;-81
2023/01/22 10:36:48;;;;;;;28.13;14.05;;;;;;;8.93;100.00;100662.44;5098898;28;20050;-79
2023/01/22 10:39:15;;;;;;;22.08;11.95;;;;;;;8.93;100.00;100657.19;5099274;28;20086;-81
2023/01/22 10:41:42;;;;;;;26.45;13.73;;;;;;;9.11;100.00;100673.94;5100304;28;20055;-81
2023/01/22 10:44:19;;;;;;;19.95;13.05;;;;;;;9.86;100.00;100806.53;5098247;28;20065;-82
2023/01/22 10:46:45;;;;;;;36.67;14.27;;;;;;;9.89;100.00;100787.34;5101514;28;20055;-77
2023/01/22 10:49:24;;;;;;;26.70;13.23;;;;;;;9.76;100.00;100767.97;5103076;28;20072;-82
2023/01/22 10:51:54;;;;;;;27.00;12.48;;;;;;;9.94;100.00;100803.97;5090018;28;20062;-81
2023/01/22 10:54:32;;;;;;;24.20;10.45;;;;;;;10.04;100.00;100797.94;5085748;28;20125;-77
2023/01/22 10:57:13;;;;;;;19.08;12.00;;;;;;;9.59;100.00;100712.81;5096898;28;20055;-78
2023/01/22 10:59:38;;;;;;;26.05;12.13;;;;;;;9.92;100.00;100792.59;5092680;28;20131;-78
2023/01/22 11:02:17;;;;;;;22.25;12.73;;;;;;;9.83;100.00;100766.28;5096681;28;20120;-78
2023/01/22 11:04:42;;;;;;;27.98;13.32;;;;;;;10.01;100.00;100811.03;5096055;28;20059;-77
2023/01/22 11:07:16;;;;;;;28.13;15.20;;;;;;;10.10;100.00;100821.59;5098569;28;20114;-77
2023/01/22 11:09:48;;;;;;;28.58;13.18;;;;;;;10.23;100.00;100840.94;5091180;28;20462;-77
2023/01/22 11:12:31;;;;;;;24.13;13.18;;;;;;;9.62;100.00;100725.97;5078429;28;20415;-76
2023/01/22 11:15:18;;;;;;;24.60;12.50;;;;;;;10.40;100.00;100846.34;5084514;28;20077;-75
2023/01/22 11:17:50;;;;;;;19.88;11.90;;;;;;;10.47;100.00;100853.41;5074748;28;20052;-76
2023/01/22 11:20:28;;;;;;;34.00;15.30;;;;;;;10.52;100.00;100858.69;5082174;28;20269;-77
2023/01/22 11:23:15;;;;;;;18.60;12.68;;;;;;;9.85;100.00;100741.84;5080409;28;20051;-76